createdAt,value
2022-10-22T00:00:59.788Z,100700.00
2022-10-22T00:03:27.710Z,100714.91
2022-10-22T00:05:55.499Z,100726.19
2022-10-22T00:08:23.506Z,100720.44
2022-10-22T00:10:51.429Z,100721.50
2022-10-22T00:13:21.544Z,100721.84
2022-10-22T00:15:49.393Z,100730.03
2022-10-22T00:18:17.484Z,100729.25
2022-10-22T00:20:45.332Z,100722.63
2022-10-22T00:23:13.103Z,100719.97
2022-10-22T00:25:40.974Z,100725.75
2022-10-22T00:28:08.882Z,100718.50
2022-10-22T00:30:38.202Z,100717.72
2022-10-22T00:33:06.189Z,100696.69
2022-10-22T00:35:34.467Z,100702.63
2022-10-22T00:38:02.434Z,100703.38
2022-10-22T00:40:30.313Z,100703.41
2022-10-22T00:42:59.194Z,100696.31
2022-10-22T00:45:28.991Z,100687.75
2022-10-22T00:48:02.673Z,100686.53
2022-10-22T00:50:36.297Z,100692.34
2022-10-22T00:53:08.724Z,100684.91
2022-10-22T00:55:40.364Z,100682.91
2022-10-22T00:58:08.419Z,100691.06
2022-10-22T01:00:36.782Z,100705.69
2022-10-22T01:03:07.152Z,100710.31
2022-10-22T01:05:44.480Z,100713.44
2022-10-22T01:08:25.181Z,100714.66
2022-10-22T01:11:09.073Z,100714.59
2022-10-22T01:13:55.128Z,100719.59
2022-10-22T01:16:34.898Z,100724.19
2022-10-22T01:19:22.478Z,100738.53
2022-10-22T01:22:00.410Z,100734.66
2022-10-22T01:24:58.561Z,100721.19
2022-10-22T01:27:41.663Z,100716.44
2022-10-22T01:30:15.047Z,100724.97
2022-10-22T01:32:48.272Z,100720.75
2022-10-22T01:35:27.893Z,100722.72
2022-10-22T01:38:01.780Z,100716.53
2022-10-22T01:40:30.696Z,100714.16
2022-10-22T01:43:01.719Z,100695.00
2022-10-22T01:45:36.004Z,100715.00
2022-10-22T01:48:27.127Z,100710.72
2022-10-22T01:51:27.583Z,100701.00
2022-10-22T01:54:04.732Z,100706.81
2022-10-22T01:56:54.507Z,100710.16
2022-10-22T01:59:40.016Z,100715.81
2022-10-22T02:02:26.214Z,100716.28
2022-10-22T02:05:02.320Z,100706.53
2022-10-22T02:07:35.517Z,100715.44
2022-10-22T02:10:07.483Z,100730.97
2022-10-22T02:12:36.765Z,100733.56
2022-10-22T02:15:06.614Z,100730.81
2022-10-22T02:17:38.581Z,100733.53
2022-10-22T02:20:14.109Z,100730.41
2022-10-22T02:22:42.956Z,100731.16
2022-10-22T02:25:13.612Z,100722.00
2022-10-22T02:27:48.976Z,100720.13
2022-10-22T02:30:21.087Z,100720.84
2022-10-22T02:32:57.603Z,100704.16
2022-10-22T02:35:29.612Z,100716.63
2022-10-22T02:38:00.775Z,100711.97
2022-10-22T02:40:31.629Z,100708.84
2022-10-22T02:42:59.924Z,100711.19
2022-10-22T02:45:28.608Z,100708.66
2022-10-22T02:47:57.767Z,100714.53
2022-10-22T02:50:25.574Z,100714.91
2022-10-22T02:52:53.392Z,100703.56
2022-10-22T02:55:21.199Z,100697.22
2022-10-22T02:57:49.062Z,100712.09
2022-10-22T03:00:17.750Z,100720.94
2022-10-22T03:02:45.596Z,100724.09
2022-10-22T03:05:15.111Z,100713.66
2022-10-22T03:07:43.156Z,100712.09
2022-10-22T03:10:11.330Z,100707.09
2022-10-22T03:12:39.141Z,100694.69
2022-10-22T03:15:08.031Z,100704.06
2022-10-22T03:17:35.861Z,100695.50
2022-10-22T03:20:03.775Z,100699.09
2022-10-22T03:22:36.372Z,100694.94
2022-10-22T03:25:12.070Z,100695.88
2022-10-22T03:27:42.286Z,100688.78
2022-10-22T03:30:11.837Z,100697.41
2022-10-22T03:32:39.820Z,100695.50
2022-10-22T03:35:08.225Z,100699.41
2022-10-22T03:37:38.695Z,100699.78
2022-10-22T03:40:11.454Z,100697.75
2022-10-22T03:42:39.501Z,100697.22
2022-10-22T03:45:09.123Z,100693.09
2022-10-22T03:47:37.823Z,100703.66
2022-10-22T03:50:08.085Z,100700.47
2022-10-22T03:52:40.243Z,100702.03
2022-10-22T03:55:10.393Z,100698.03
2022-10-22T03:57:38.602Z,100711.00
2022-10-22T04:00:09.023Z,100719.03
2022-10-22T04:02:36.822Z,100717.41
2022-10-22T04:05:05.209Z,100699.44
2022-10-22T04:07:33.150Z,100728.97
2022-10-22T04:10:02.311Z,100721.53
2022-10-22T04:12:30.112Z,100729.66
2022-10-22T04:14:57.897Z,100738.94
2022-10-22T04:17:25.779Z,100736.56
2022-10-22T04:19:53.562Z,100739.72
2022-10-22T04:22:21.414Z,100747.06
2022-10-22T04:27:23.360Z,100743.16
2022-10-22T04:29:51.194Z,100755.53
2022-10-22T04:32:18.956Z,100755.97
2022-10-22T04:34:46.740Z,100755.59
2022-10-22T04:37:14.542Z,100749.44
2022-10-22T04:39:42.375Z,100749.44
2022-10-22T04:42:10.272Z,100750.09
2022-10-22T04:44:39.510Z,100729.56
2022-10-22T04:47:07.376Z,100738.59
2022-10-22T04:49:35.212Z,100728.09
2022-10-22T04:52:03.127Z,100733.13
2022-10-22T04:54:33.107Z,100716.38
2022-10-22T04:57:01.275Z,100726.13
2022-10-22T04:59:29.132Z,100725.28
2022-10-22T05:01:58.365Z,100736.78
2022-10-22T05:04:26.153Z,100729.75
2022-10-22T05:06:53.899Z,100740.88
2022-10-22T05:09:22.434Z,100742.53
2022-10-22T05:11:53.453Z,100741.66
2022-10-22T05:14:24.372Z,100743.19
2022-10-22T05:16:53.316Z,100740.44
2022-10-22T05:19:26.759Z,100754.09
2022-10-22T05:21:57.739Z,100757.16
2022-10-22T05:24:26.384Z,100756.25
2022-10-22T05:26:56.339Z,100755.84
2022-10-22T05:29:25.784Z,100760.19
2022-10-22T05:31:54.121Z,100761.31
2022-10-22T05:34:23.490Z,100753.88
2022-10-22T05:36:51.302Z,100766.25
2022-10-22T05:39:19.252Z,100766.31
2022-10-22T05:41:47.088Z,100761.31
2022-10-22T05:44:15.044Z,100757.03
2022-10-22T05:46:43.411Z,100766.00
2022-10-22T05:49:15.968Z,100743.63
2022-10-22T05:51:45.211Z,100770.63
2022-10-22T05:54:18.726Z,100781.13
2022-10-22T05:56:47.408Z,100756.56
2022-10-22T05:59:15.448Z,100772.69
2022-10-22T06:01:43.598Z,100762.69
2022-10-22T06:04:14.220Z,100768.47
2022-10-22T06:06:47.107Z,100771.84
2022-10-22T06:09:20.611Z,100784.19
2022-10-22T06:11:50.787Z,100775.22
2022-10-22T06:14:20.371Z,100783.59
2022-10-22T06:16:48.585Z,100778.16
2022-10-22T06:19:19.867Z,100768.47
2022-10-22T06:21:49.813Z,100779.75
2022-10-22T06:24:17.880Z,100783.59
2022-10-22T06:26:45.720Z,100786.78
2022-10-22T06:29:13.545Z,100791.66
2022-10-22T06:31:41.358Z,100787.66
2022-10-22T06:34:14.800Z,100798.22
2022-10-22T06:36:44.879Z,100795.09
2022-10-22T06:39:16.587Z,100805.56
2022-10-22T06:41:44.404Z,100805.25
2022-10-22T06:44:16.293Z,100786.94
2022-10-22T06:46:44.966Z,100780.09
2022-10-22T06:49:15.395Z,100807.44
2022-10-22T06:51:43.493Z,100798.47
2022-10-22T06:54:13.551Z,100804.38
2022-10-22T06:56:41.400Z,100806.88
2022-10-22T06:59:09.459Z,100807.59
2022-10-22T07:01:38.734Z,100780.22
2022-10-22T07:04:08.867Z,100813.94
2022-10-22T07:06:36.959Z,100815.06
2022-10-22T07:09:05.293Z,100816.69
2022-10-22T07:11:42.274Z,100818.38
2022-10-22T07:14:11.339Z,100826.22
2022-10-22T07:16:42.011Z,100816.25
2022-10-22T07:19:10.226Z,100804.38
2022-10-22T07:21:37.992Z,100812.41
2022-10-22T07:24:06.443Z,100812.03
2022-10-22T07:26:36.881Z,100822.09
2022-10-22T07:29:05.814Z,100839.16
2022-10-22T07:31:33.572Z,100831.44
2022-10-22T07:34:01.349Z,100842.41
2022-10-22T07:36:29.205Z,100847.34
2022-10-22T07:39:00.073Z,100856.31
2022-10-22T07:41:30.583Z,100843.38
2022-10-22T07:44:00.350Z,100839.47
2022-10-22T07:46:28.378Z,100850.59
2022-10-22T07:48:56.351Z,100848.66
2022-10-22T07:51:24.261Z,100846.03
2022-10-22T07:53:52.033Z,100857.75
2022-10-22T07:56:19.852Z,100857.03
2022-10-22T07:58:47.626Z,100855.13
2022-10-22T08:01:17.266Z,100858.88
2022-10-22T08:03:45.557Z,100856.09
2022-10-22T08:06:15.614Z,100848.75
2022-10-22T08:08:45.720Z,100858.53
2022-10-22T08:11:13.857Z,100825.72
2022-10-22T08:13:45.408Z,100856.47
2022-10-22T08:16:14.228Z,100862.06
2022-10-22T08:18:43.966Z,100863.69
2022-10-22T08:21:11.972Z,100866.50
2022-10-22T08:23:39.960Z,100866.78
2022-10-22T08:26:07.815Z,100872.16
2022-10-22T08:28:37.096Z,100856.09
2022-10-22T08:31:05.386Z,100868.34
2022-10-22T08:33:33.178Z,100879.66
2022-10-22T08:36:02.432Z,100887.81
2022-10-22T08:38:31.323Z,100885.69
2022-10-22T08:41:11.513Z,100873.88
2022-10-22T08:44:08.122Z,100887.06
2022-10-22T08:47:00.880Z,100853.00
2022-10-22T08:49:35.087Z,100881.50
2022-10-22T08:52:06.974Z,100886.63
2022-10-22T08:54:50.183Z,100886.28
2022-10-22T08:57:39.309Z,100900.97
2022-10-22T09:00:15.219Z,100904.59
2022-10-22T09:03:02.602Z,100904.72
2022-10-22T09:05:46.975Z,100892.19
2022-10-22T09:08:20.418Z,100907.78
2022-10-22T09:10:54.119Z,100900.06
2022-10-22T09:13:24.428Z,100907.44
2022-10-22T09:15:58.614Z,100896.78
2022-10-22T09:18:42.601Z,100903.69
2022-10-22T09:21:25.249Z,100898.81
2022-10-22T09:24:05.833Z,100905.53
2022-10-22T09:26:39.649Z,100906.44
2022-10-22T09:29:08.823Z,100908.72
2022-10-22T09:31:36.624Z,100908.88
2022-10-22T09:34:07.497Z,100925.63
2022-10-22T09:36:38.785Z,100922.78
2022-10-22T09:39:25.252Z,100904.22
2022-10-22T09:41:53.224Z,100922.91
2022-10-22T09:44:22.051Z,100910.88
2022-10-22T09:46:49.956Z,100899.28
2022-10-22T09:49:22.262Z,100923.31
2022-10-22T09:51:55.745Z,100925.19
2022-10-22T09:54:28.547Z,100922.84
2022-10-22T09:57:03.772Z,100927.91
2022-10-22T09:59:34.278Z,100923.59
2022-10-22T10:02:20.267Z,100932.31
2022-10-22T10:05:05.673Z,100912.88
2022-10-22T10:07:36.587Z,100930.56
2022-10-22T10:10:22.434Z,100934.09
2022-10-22T10:13:03.109Z,100941.88
2022-10-22T10:15:40.112Z,100938.53
2022-10-22T10:18:24.048Z,100935.81
2022-10-22T10:21:05.012Z,100943.88
2022-10-22T10:23:41.303Z,100929.63
2022-10-22T10:26:20.788Z,100931.81
2022-10-22T10:29:04.497Z,100924.25
2022-10-22T10:31:51.450Z,100929.25
2022-10-22T10:34:41.883Z,100923.22
2022-10-22T10:37:21.949Z,100919.25
2022-10-22T10:40:12.490Z,100912.34
2022-10-22T10:42:50.457Z,100912.22
2022-10-22T10:45:30.933Z,100901.66
2022-10-22T10:48:34.167Z,100914.25
2022-10-22T10:51:13.140Z,100921.81
2022-10-22T10:54:02.304Z,100885.88
2022-10-22T10:56:40.737Z,100925.97
2022-10-22T10:59:20.457Z,100922.84
2022-10-22T11:02:14.037Z,100914.28
2022-10-22T11:05:21.471Z,100919.56
2022-10-22T11:07:57.786Z,100925.81
2022-10-22T11:10:35.059Z,100908.72
2022-10-22T11:13:15.200Z,100917.47
2022-10-22T11:15:53.825Z,100924.81
2022-10-22T11:18:29.855Z,100911.97
2022-10-22T11:21:17.804Z,100908.50
2022-10-22T11:23:54.532Z,100908.16
2022-10-22T11:26:37.254Z,100910.50
2022-10-22T11:29:12.563Z,100905.13
2022-10-22T11:31:44.277Z,100904.38
2022-10-22T11:34:33.359Z,100904.38
2022-10-22T11:37:05.130Z,100895.41
2022-10-22T11:39:44.018Z,100901.16
2022-10-22T11:42:20.581Z,100900.81
2022-10-22T11:45:00.544Z,100904.66
2022-10-22T11:47:34.782Z,100906.63
2022-10-22T11:50:21.633Z,100903.53
2022-10-22T11:53:03.693Z,100910.91
2022-10-22T11:55:48.036Z,100907.03
2022-10-22T11:58:42.207Z,100904.78
2022-10-22T12:01:30.994Z,100903.22
2022-10-22T12:04:21.971Z,100908.66
2022-10-22T12:06:58.112Z,100901.22
2022-10-22T12:09:30.331Z,100885.22
2022-10-22T12:12:14.350Z,100908.56
2022-10-22T12:14:55.020Z,100911.34
2022-10-22T12:17:24.389Z,100910.22
2022-10-22T12:20:02.839Z,100909.06
2022-10-22T12:22:33.920Z,100902.03
2022-10-22T12:25:04.188Z,100903.59
2022-10-22T12:27:38.368Z,100894.22
2022-10-22T12:30:22.322Z,100895.03
2022-10-22T12:32:54.751Z,100892.28
2022-10-22T12:35:27.410Z,100893.03
2022-10-22T12:37:58.067Z,100863.03
2022-10-22T12:40:29.286Z,100884.44
2022-10-22T12:43:00.172Z,100896.53
2022-10-22T12:45:30.763Z,100883.63
2022-10-22T12:48:02.088Z,100889.09
2022-10-22T12:50:38.177Z,100882.13
2022-10-22T12:53:07.067Z,100873.94
2022-10-22T12:55:35.667Z,100880.94
2022-10-22T12:58:07.904Z,100879.72
2022-10-22T13:00:36.955Z,100879.34
2022-10-22T13:03:08.065Z,100870.03
2022-10-22T13:05:39.818Z,100876.25
2022-10-22T13:08:11.957Z,100880.53
2022-10-22T13:10:42.709Z,100882.88
2022-10-22T13:13:34.010Z,100881.72
2022-10-22T13:16:20.806Z,100893.03
2022-10-22T13:18:49.983Z,100881.72
2022-10-22T13:21:30.092Z,100894.59
2022-10-22T13:24:01.413Z,100891.47
2022-10-22T13:26:36.356Z,100888.72
2022-10-22T13:29:14.662Z,100895.34
2022-10-22T13:31:48.073Z,100891.06
2022-10-22T13:34:21.923Z,100896.53
2022-10-22T13:36:52.043Z,100901.97
2022-10-22T13:39:24.113Z,100897.69
2022-10-22T13:41:53.243Z,100889.09
2022-10-22T13:44:21.128Z,100891.47
2022-10-22T13:46:50.148Z,100896.88
2022-10-22T13:49:23.352Z,100888.72
2022-10-22T13:51:53.539Z,100892.66
2022-10-22T13:54:25.820Z,100897.69
2022-10-22T13:56:53.945Z,100896.91
2022-10-22T13:59:23.774Z,100898.84
2022-10-22T14:01:53.183Z,100895.34
2022-10-22T14:04:21.024Z,100891.03
2022-10-22T14:06:48.840Z,100908.22
2022-10-22T14:09:23.297Z,100911.38
2022-10-22T14:11:51.057Z,100896.53
2022-10-22T14:14:19.109Z,100909.81
2022-10-22T14:16:47.054Z,100912.91
2022-10-22T14:19:18.628Z,100908.59
2022-10-22T14:21:47.065Z,100903.91
2022-10-22T14:24:14.875Z,100904.69
2022-10-22T14:26:43.969Z,100913.69
2022-10-22T14:29:12.050Z,100911.72
2022-10-22T14:34:16.874Z,100916.41
2022-10-22T14:36:45.086Z,100909.03
2022-10-22T14:39:13.162Z,100919.16
2022-10-22T14:41:43.611Z,100917.59
2022-10-22T14:44:14.233Z,100918.78
2022-10-22T14:46:44.141Z,100924.97
2022-10-22T14:49:11.968Z,100920.34
2022-10-22T14:51:39.985Z,100921.53
2022-10-22T14:54:07.847Z,100923.47
2022-10-22T14:59:11.492Z,100933.22
2022-10-22T15:01:42.046Z,100934.75
2022-10-22T15:04:10.341Z,100936.34
2022-10-22T15:06:38.185Z,100933.22
2022-10-22T15:09:06.168Z,100933.22
2022-10-22T15:11:33.997Z,100934.00
2022-10-22T15:14:01.820Z,100937.91
2022-10-22T15:16:31.014Z,100934.78
2022-10-22T15:18:59.798Z,100938.31
2022-10-22T15:21:27.707Z,100943.38
2022-10-22T15:23:55.541Z,100942.59
2022-10-22T15:26:23.346Z,100951.53
2022-10-22T15:28:51.254Z,100956.63
2022-10-22T15:31:52.134Z,100957.78
2022-10-22T15:34:22.719Z,100957.75
2022-10-22T15:36:51.369Z,100969.09
2022-10-22T15:39:19.578Z,100974.53
2022-10-22T15:41:47.970Z,100977.59
2022-10-22T15:44:18.739Z,100975.66
2022-10-22T15:46:46.806Z,100979.19
2022-10-22T15:49:16.043Z,100978.41
2022-10-22T15:51:44.035Z,100975.59
2022-10-22T15:54:16.395Z,100988.44
2022-10-22T15:56:44.682Z,100985.31
2022-10-22T15:59:14.638Z,100982.50
2022-10-22T16:01:43.221Z,100987.53
2022-10-22T16:04:12.461Z,100990.25
2022-10-22T16:06:45.264Z,100996.88
2022-10-22T16:09:16.426Z,100999.88
2022-10-22T16:11:44.807Z,100997.19
2022-10-22T16:14:14.724Z,100996.34
2022-10-22T16:16:45.566Z,101007.28
2022-10-22T16:19:16.006Z,101001.84
2022-10-22T16:21:45.884Z,101014.19
2022-10-22T16:24:13.668Z,101011.81
2022-10-22T16:26:41.516Z,101019.63
2022-10-22T16:29:11.489Z,101028.50
2022-10-22T16:31:40.250Z,101014.31
2022-10-22T16:34:08.173Z,101028.22
2022-10-22T16:36:36.289Z,101028.97
2022-10-22T16:39:06.698Z,101032.44
2022-10-22T16:41:36.307Z,101040.59
2022-10-22T16:44:07.863Z,101039.34
2022-10-22T16:46:38.418Z,101032.97
2022-10-22T16:49:08.421Z,101050.53
2022-10-22T16:51:37.227Z,101045.03
2022-10-22T16:54:09.713Z,101049.69
2022-10-22T16:56:40.315Z,101057.09
2022-10-22T16:59:08.664Z,101047.41
2022-10-22T17:01:40.671Z,101050.25
2022-10-22T17:04:09.452Z,101056.09
2022-10-22T17:06:37.417Z,101069.34
2022-10-22T17:09:06.730Z,101069.09
2022-10-22T17:11:37.049Z,101066.44
2022-10-22T17:14:07.548Z,101066.47
2022-10-22T17:16:35.397Z,101057.47
2022-10-22T17:19:05.505Z,101066.50
2022-10-22T17:21:33.884Z,101072.97
2022-10-22T17:24:01.855Z,101054.22
2022-10-22T17:26:33.178Z,101075.81
2022-10-22T17:29:01.466Z,101076.44
2022-10-22T17:31:34.236Z,101078.28
2022-10-22T17:34:02.720Z,101080.94
2022-10-22T17:36:34.911Z,101089.59
2022-10-22T17:39:08.584Z,101096.53
2022-10-22T17:41:38.855Z,101089.75
2022-10-22T17:44:09.977Z,101107.69
2022-10-22T17:46:38.885Z,101090.16
2022-10-22T17:49:13.201Z,101106.03
2022-10-22T17:51:41.596Z,101112.56
2022-10-22T17:54:10.225Z,101116.34
2022-10-22T17:56:40.577Z,101122.44
2022-10-22T17:59:08.950Z,101129.63
2022-10-22T18:01:43.358Z,101125.50
2022-10-22T18:04:16.448Z,101116.16
2022-10-22T18:06:45.144Z,101126.63
2022-10-22T18:09:18.381Z,101122.00
2022-10-22T18:11:49.861Z,101125.66
2022-10-22T18:14:19.111Z,101123.72
2022-10-22T18:16:48.434Z,101135.31
2022-10-22T18:19:19.076Z,101126.81
2022-10-22T18:21:47.458Z,101125.56
2022-10-22T18:24:16.438Z,101128.03
2022-10-22T18:26:45.080Z,101122.63
2022-10-22T18:29:18.457Z,101127.28
2022-10-22T18:31:46.824Z,101122.13
2022-10-22T18:34:16.597Z,101122.91
2022-10-22T18:36:46.936Z,101126.34
2022-10-22T18:39:16.795Z,101111.13
2022-10-22T18:41:44.831Z,101120.88
2022-10-22T18:44:16.350Z,101125.81
2022-10-22T18:46:44.238Z,101128.06
2022-10-22T18:49:19.162Z,101127.16
2022-10-22T18:51:48.787Z,101134.09
2022-10-22T18:54:23.922Z,101125.41
2022-10-22T18:56:52.730Z,101122.00
2022-10-22T18:59:24.547Z,101123.91
2022-10-22T19:01:54.766Z,101131.94
2022-10-22T19:04:24.215Z,101123.72
2022-10-22T19:06:52.062Z,101137.28
2022-10-22T19:09:19.967Z,101141.00
2022-10-22T19:11:48.119Z,101132.84
2022-10-22T19:14:19.326Z,101141.63
2022-10-22T19:16:48.948Z,101134.03
2022-10-22T19:19:20.214Z,101150.03
2022-10-22T19:21:48.854Z,101144.91
2022-10-22T19:24:19.152Z,101152.28
2022-10-22T19:26:48.112Z,101162.00
2022-10-22T19:29:18.153Z,101157.75
2022-10-22T19:31:50.490Z,101121.94
2022-10-22T19:34:18.864Z,101152.28
2022-10-22T19:36:46.864Z,101150.78
2022-10-22T19:39:17.470Z,101156.59
2022-10-22T19:41:45.625Z,101165.63
2022-10-22T19:44:13.540Z,101173.28
2022-10-22T19:46:42.409Z,101174.50
2022-10-22T19:49:12.475Z,101179.56
2022-10-22T19:51:40.442Z,101173.25
2022-10-22T19:54:15.628Z,101176.28
2022-10-22T19:56:43.489Z,101178.22
2022-10-22T19:59:11.664Z,101180.34
2022-10-22T20:01:39.786Z,101170.94
2022-10-22T20:04:07.640Z,101169.94
2022-10-22T20:06:36.819Z,101177.78
2022-10-22T20:09:06.211Z,101178.56
2022-10-22T20:11:34.083Z,101168.16
2022-10-22T20:14:01.937Z,101177.44
2022-10-22T20:16:30.667Z,101178.16
2022-10-22T20:19:03.245Z,101191.91
2022-10-22T20:21:32.446Z,101187.97
2022-10-22T20:24:02.564Z,101193.84
2022-10-22T20:26:31.605Z,101194.75
2022-10-22T20:28:59.837Z,101195.41
2022-10-22T20:31:30.233Z,101207.53
2022-10-22T20:34:01.075Z,101207.06
2022-10-22T20:36:31.076Z,101206.19
2022-10-22T20:39:05.721Z,101198.44
2022-10-22T20:41:35.254Z,101214.03
2022-10-22T20:44:03.287Z,101215.53
2022-10-22T20:46:33.395Z,101227.47
2022-10-22T20:49:05.357Z,101212.50
2022-10-22T20:51:33.376Z,101236.06
2022-10-22T20:54:02.621Z,101232.63
2022-10-22T20:56:30.592Z,101244.50
2022-10-22T20:59:05.169Z,101231.97
2022-10-22T21:01:37.650Z,101249.22
2022-10-22T21:04:06.425Z,101236.16
2022-10-22T21:06:38.038Z,101253.13
2022-10-22T21:09:09.311Z,101242.06
2022-10-22T21:11:38.593Z,101249.63
2022-10-22T21:14:09.354Z,101246.72
2022-10-22T21:16:41.981Z,101252.34
2022-10-22T21:19:09.767Z,101256.38
2022-10-22T21:21:37.567Z,101256.22
2022-10-22T21:24:07.128Z,101259.16
2022-10-22T21:26:38.489Z,101262.44
2022-10-22T21:29:06.366Z,101258.09
2022-10-22T21:31:34.335Z,101247.31
2022-10-22T21:34:02.280Z,101257.25
2022-10-22T21:36:30.131Z,101261.94
2022-10-22T21:38:58.026Z,101266.13
2022-10-22T21:41:27.174Z,101260.19
2022-10-22T21:43:54.925Z,101269.78
2022-10-22T21:46:25.564Z,101275.88
2022-10-22T21:48:59.109Z,101276.31
2022-10-22T21:51:27.726Z,101282.28
2022-10-22T21:53:55.768Z,101284.53
2022-10-22T21:56:27.252Z,101281.63
2022-10-22T21:58:56.969Z,101290.94
2022-10-22T22:01:25.476Z,101292.56
2022-10-22T22:03:53.853Z,101297.28
2022-10-22T22:06:26.282Z,101295.06
2022-10-22T22:08:56.722Z,101296.72
2022-10-22T22:11:27.241Z,101304.00
2022-10-22T22:13:58.195Z,101281.00
2022-10-22T22:16:33.210Z,101286.06
2022-10-22T22:21:32.833Z,101286.72
2022-10-22T22:24:01.328Z,101283.84
2022-10-22T22:26:30.903Z,101284.88
2022-10-22T22:29:01.203Z,101289.06
2022-10-22T22:31:31.880Z,101280.84
2022-10-22T22:34:01.083Z,101289.38
2022-10-22T22:36:29.166Z,101285.78
2022-10-22T22:38:57.525Z,101281.13
2022-10-22T22:41:25.713Z,101278.09
2022-10-22T22:46:27.887Z,101282.72
2022-10-22T22:48:55.942Z,101291.41
2022-10-22T22:51:24.601Z,101286.69
2022-10-22T22:53:53.026Z,101292.03
2022-10-22T22:56:24.150Z,101282.34
2022-10-22T22:58:52.388Z,101295.28
2022-10-22T23:01:23.530Z,101291.38
2022-10-22T23:03:58.840Z,101293.72
2022-10-22T23:06:29.328Z,101296.38
2022-10-22T23:08:58.356Z,101298.72
2022-10-22T23:11:28.208Z,101298.81
2022-10-22T23:13:59.720Z,101275.03
2022-10-22T23:16:30.903Z,101293.56
2022-10-22T23:19:01.748Z,101303.63
2022-10-22T23:21:32.659Z,101308.19
2022-10-22T23:24:04.524Z,101306.00
2022-10-22T23:26:37.079Z,101303.13
2022-10-22T23:29:07.903Z,101306.88
2022-10-22T23:31:35.892Z,101319.22
2022-10-22T23:34:06.256Z,101313.63
2022-10-22T23:36:35.976Z,101309.94
2022-10-22T23:39:05.744Z,101311.59
2022-10-22T23:41:34.093Z,101314.75
2022-10-22T23:44:02.625Z,101318.41
2022-10-22T23:46:30.536Z,101323.84
2022-10-22T23:48:58.365Z,101320.94
2022-10-22T23:51:28.138Z,101319.91
2022-10-22T23:53:57.211Z,101315.63
2022-10-22T23:56:25.556Z,101313.34
2022-10-22T23:58:54.220Z,101304.84
